Airport View

Enter AWOS ICAO identifier for current METAR.

ex. KFNL

KRIL 171153Z AUTO 25003KT 10SM CLR M03/M08 A3034 RMK AO2 SLP267 T10331078 10061 21044 53010

17 Nov 2019 12:11

Frequency: 135.275

Phone: 970-625-2206

Other Area AWOS: K5SM - KEEO - KEGE - KASE

TAF KRIL 171124Z 1712/1812 VRB04KT P6SM FEW250 FM172000 29005KT P6SM FEW250 FM180000 VRB03KT P6SM SCT250